Time;durP1;ratioP1;P1;durP2;ratioP2;P2;SDS_P1;SDS_P2;PMS_P1;PMS_P2;Temp;Humidity;BMP_temperature;BMP_pressure;BME280_temperature;BME280_humidity;BME280_pressure;Samples;Min_cycle;Max_cycle;Signal;HPM_P1;HPM_P2
2023/01/25 00:00:11;;;;;;;;;;;;;;;;;;2072661;28;20125;-93
2023/01/25 00:01:12;;;;;;;6.43;5.03;;;;;;;;;;2071927;28;19960;-92
2023/01/25 00:02:12;;;;;;;7.38;4.55;;;;;;;;;;2067778;28;20014;-92
2023/01/25 00:03:12;;;;;;;;;;;;;;;;;;2074448;28;20015;-92
2023/01/25 00:04:13;;;;;;;4.77;4.17;;;;;;;;;;2082243;28;19933;-91
2023/01/25 00:05:13;;;;;;;;;;;;;;;;;;2080896;28;20022;-91
2023/01/25 00:06:14;;;;;;;5.40;4.20;;;;;;;;;;2075793;28;20387;-92
2023/01/25 00:07:14;;;;;;;8.50;4.38;;;;;;;;;;2068211;28;20033;-91
2023/01/25 00:08:15;;;;;;;;;;;;;;;;;;2072818;28;20117;-92
2023/01/25 00:09:16;;;;;;;6.85;4.70;;;;;;;;;;2080590;28;19917;-92
2023/01/25 00:10:16;;;;;;;;;;;;;;;;;;2072172;28;20021;-93
2023/01/25 00:11:18;;;;;;;4.47;4.07;;;;;;;;;;2071489;28;19913;-92
2023/01/25 00:12:19;;;;;;;8.23;4.60;;;;;;;;;;2064840;28;20046;-91
2023/01/25 00:13:19;;;;;;;;;;;;;;;;;;2064900;28;20582;-92
2023/01/25 00:14:20;;;;;;;9.80;4.73;;;;;;;;;;2071803;28;19916;-92
2023/01/25 00:15:20;;;;;;;;;;;;;;;;;;2072074;28;20017;-92
2023/01/25 00:16:23;;;;;;;4.33;3.93;;;;;;;;;;2071536;28;19991;-91
2023/01/25 00:17:26;;;;;;;7.68;4.90;;;;;;;;;;2071590;28;20025;-92
2023/01/25 00:18:26;;;;;;;6.30;4.80;;;;;;;;;;2063757;28;20129;-90
2023/01/25 00:19:27;;;;;;;;;;;;;;;;;;2063665;28;20018;-92
2023/01/25 00:20:27;;;;;;;4.73;3.90;;;;;;;;;;2071764;28;19909;-92
2023/01/25 00:21:28;;;;;;;;;;;;;;;;;;2071976;28;20168;-91
2023/01/25 00:22:28;;;;;;;8.73;5.03;;;;;;;;;;2073869;28;19909;-91
2023/01/25 00:23:32;;;;;;;;;;;;;;;;;;2073056;28;20030;-91
2023/01/25 00:24:35;;;;;;;8.55;4.00;;;;;;;;;;2081866;28;19914;-91
2023/01/25 00:25:36;;;;;;;4.70;3.88;;;;;;;;;;2072182;28;20526;-91
2023/01/25 00:26:37;;;;;;;;;;;;;;;;;;2070465;28;20022;-92
2023/01/25 00:27:38;;;;;;;7.95;4.47;;;;;;;;;;2074969;28;19964;-92
2023/01/25 00:28:39;;;;;;;;;;;;;;;;;;2072751;28;20085;-93
2023/01/25 00:29:39;;;;;;;6.70;4.63;;;;;;;;;;2072759;28;20303;-93
2023/01/25 00:30:40;;;;;;;;;;;;;;;;;;2073533;28;20034;-93
2023/01/25 00:31:55;;;;;;;5.27;4.40;;;;;;;;;;2071850;28;20062;-93
2023/01/25 00:33:43;;;;;;;7.13;4.68;;;;;;;;;;2071966;28;20526;-92
2023/01/25 00:34:51;;;;;;;6.57;4.40;;;;;;;;;;2069749;28;20038;-92
2023/01/25 00:35:55;;;;;;;6.13;4.45;;;;;;;;;;2065933;28;20037;-92
2023/01/25 00:37:00;;;;;;;7.47;4.68;;;;;;;;;;2070169;28;20133;-93
2023/01/25 00:38:05;;;;;;;6.25;4.60;;;;;;;;;;2067587;28;20018;-92
2023/01/25 00:39:09;;;;;;;6.13;4.30;;;;;;;;;;2072648;28;20022;-92
2023/01/25 00:40:12;;;;;;;5.32;4.32;;;;;;;;;;2077354;28;20014;-92
2023/01/25 00:41:13;;;;;;;5.32;4.18;;;;;;;;;;2073461;28;20030;-92
2023/01/25 00:42:15;;;;;;;;;;;;;;;;;;2066140;28;20022;-92
2023/01/25 00:43:15;;;;;;;;;;;;;;;;;;2066225;28;19910;-92
2023/01/25 00:44:16;;;;;;;7.63;5.17;;;;;;;;;;2065634;28;19924;-92
2023/01/25 00:45:16;;;;;;;5.47;4.60;;;;;;;;;;2065336;28;20490;-91
2023/01/25 00:46:17;;;;;;;;;;;;;;;;;;2073966;28;20080;-92
2023/01/25 00:47:17;;;;;;;8.03;4.40;;;;;;;;;;2073832;28;19916;-91
2023/01/25 00:48:18;;;;;;;;;;;;;;;;;;2074097;28;20034;-92
2023/01/25 00:49:23;;;;;;;7.65;4.32;;;;;;;;;;2073992;28;19909;-91
2023/01/25 00:50:26;;;;;;;5.82;4.15;;;;;;;;;;2073570;28;20381;-92
2023/01/25 00:51:27;;;;;;;7.80;4.63;;;;;;;;;;2073667;28;20029;-93
2023/01/25 00:52:27;;;;;;;;;;;;;;;;;;2065754;28;20029;-92
2023/01/25 00:53:28;;;;;;;5.27;4.23;;;;;;;;;;2065671;28;20005;-92
2023/01/25 00:54:28;;;;;;;5.97;4.47;;;;;;;;;;2073614;28;20026;-92
2023/01/25 00:55:33;;;;;;;5.65;4.70;;;;;;;;;;2073230;28;20025;-91
2023/01/25 00:56:34;;;;;;;6.25;4.78;;;;;;;;;;2065589;28;20499;-90
2023/01/25 00:57:34;;;;;;;;;;;;;;;;;;2073518;28;20030;-90
2023/01/25 00:58:34;;;;;;;7.78;4.57;;;;;;;;;;2072861;28;19980;-89
2023/01/25 00:59:37;;;;;;;;;;;;;;;;;;2073650;28;20173;-89
2023/01/25 01:00:40;;;;;;;4.90;4.35;;;;;;;;;;2073423;28;20315;-90
2023/01/25 01:01:41;;;;;;;5.75;4.32;;;;;;;;;;2073409;28;20037;-91
2023/01/25 01:02:41;;;;;;;;;;;;;;;;;;2065831;28;20177;-91
2023/01/25 01:03:42;;;;;;;6.43;4.40;;;;;;;;;;2073036;28;20181;-92
2023/01/25 01:04:42;;;;;;;;;;;;;;;;;;2073768;28;20034;-92
2023/01/25 01:05:42;;;;;;;5.93;4.27;;;;;;;;;;2065233;28;20368;-92
2023/01/25 01:06:43;;;;;;;;;;;;;;;;;;2065932;28;20041;-92
2023/01/25 01:07:46;;;;;;;8.90;4.43;;;;;;;;;;2067583;28;19945;-92
2023/01/25 01:08:46;;;;;;;6.25;4.50;;;;;;;;;;2069570;28;20034;-91
2023/01/25 01:09:47;;;;;;;;;;;;;;;;;;2072970;28;20135;-92
2023/01/25 01:10:47;;;;;;;6.17;4.47;;;;;;;;;;2071184;28;19920;-91
2023/01/25 01:11:48;;;;;;;;;;;;;;;;;;2066852;28;20022;-93
2023/01/25 01:12:50;;;;;;;6.03;4.10;;;;;;;;;;2065859;28;19910;-92
2023/01/25 01:13:50;;;;;;;6.53;5.28;;;;;;;;;;2073363;28;20057;-93
2023/01/25 01:14:50;;;;;;;;;;;;;;;;;;2073934;28;20574;-91
2023/01/25 01:15:51;;;;;;;6.83;4.27;;;;;;;;;;2072989;28;20005;-92
2023/01/25 01:16:51;;;;;;;;;;;;;;;;;;2073350;28;20017;-92
2023/01/25 01:17:52;;;;;;;5.87;4.30;;;;;;;;;;2073124;28;20450;-93
2023/01/25 01:18:52;;;;;;;;;;;;;;;;;;2073607;28;20069;-93
2023/01/25 01:19:53;;;;;;;6.78;4.20;;;;;;;;;;2072876;28;19945;-92
2023/01/25 01:20:54;;;;;;;7.43;5.32;;;;;;;;;;2078225;28;20014;-92
2023/01/25 01:21:54;;;;;;;6.55;4.55;;;;;;;;;;2076470;28;20101;-92
2023/01/25 01:22:57;;;;;;;;;;;;;;;;;;2074859;28;20092;-92
2023/01/25 01:23:58;;;;;;;6.22;4.47;;;;;;;;;;2073243;28;19940;-93
2023/01/25 01:24:58;;;;;;;;;;;;;;;;;;2075172;28;20018;-92
2023/01/25 01:26:02;;;;;;;5.10;4.13;;;;;;;;;;2076814;28;19937;-92
2023/01/25 01:27:05;;;;;;;6.50;4.40;;;;;;;;;;2075428;28;20022;-91
2023/01/25 01:28:06;;;;;;;5.25;4.53;;;;;;;;;;2073147;28;20053;-91
2023/01/25 01:29:06;;;;;;;;;;;;;;;;;;2075121;28;20452;-92
2023/01/25 01:30:07;;;;;;;5.40;3.93;;;;;;;;;;2082076;28;19905;-92
2023/01/25 01:31:14;;;;;;;5.15;4.53;;;;;;;;;;2065934;28;20044;-91
2023/01/25 01:32:15;;;;;;;6.72;4.53;;;;;;;;;;2065364;28;20432;-91
2023/01/25 01:33:15;;;;;;;;;;;;;;;;;;2073028;28;20026;-92
2023/01/25 01:34:15;;;;;;;3.97;3.60;;;;;;;;;;2072746;28;19913;-92
2023/01/25 01:35:16;;;;;;;;;;;;;;;;;;2073041;28;20025;-91
2023/01/25 01:36:18;;;;;;;6.13;4.43;;;;;;;;;;2072324;28;19920;-92
2023/01/25 01:37:18;;;;;;;7.43;4.10;;;;;;;;;;2064181;28;20436;-92
2023/01/25 01:38:18;;;;;;;;;;;;;;;;;;2072672;28;20029;-92
2023/01/25 01:39:19;;;;;;;5.50;4.07;;;;;;;;;;2072533;28;19919;-92
2023/01/25 01:40:19;;;;;;;;;;;;;;;;;;2072942;28;20025;-93
2023/01/25 01:41:21;;;;;;;7.07;4.33;;;;;;;;;;2064720;28;20287;-92
2023/01/25 01:42:21;;;;;;;4.95;4.15;;;;;;;;;;2072128;28;20431;-93
2023/01/25 01:43:23;;;;;;;;;;;;;;;;;;2073054;28;20056;-91
2023/01/25 01:44:46;;;;;;;5.82;3.88;;;;;;;;;;2072694;28;19917;-90
2023/01/25 01:45:55;;;;;;;4.47;4.05;;;;;;;;;;1431481;28;10002130;-92
2023/01/25 01:46:58;;;;;;;5.93;3.97;;;;;;;;;;2065627;28;20774;-93
2023/01/25 01:47:58;;;;;;;6.60;4.60;;;;;;;;;;2072745;28;20082;-92
2023/01/25 01:49:00;;;;;;;;;;;;;;;;;;2073742;28;20079;-92
2023/01/25 01:50:17;;;;;;;6.40;4.28;;;;;;;;;;2072410;28;19950;-92
2023/01/25 01:51:57;;;;;;;5.35;3.95;;;;;;;;;;2065528;28;20065;-91
2023/01/25 01:52:57;;;;;;;4.82;3.88;;;;;;;;;;2072239;28;20025;-91
2023/01/25 01:54:00;;;;;;;;;;;;;;;;;;2072730;28;20565;-91
2023/01/25 01:55:12;;;;;;;5.72;4.65;;;;;;;;;;2064009;28;20332;-91
2023/01/25 01:56:19;;;;;;;5.20;3.70;;;;;;;;;;2065592;28;20030;-92
2023/01/25 01:57:31;;;;;;;4.72;3.80;;;;;;;;;;2064896;28;20030;-91
2023/01/25 01:58:31;;;;;;;;;;;;;;;;;;2066182;28;20026;-91
2023/01/25 01:59:43;;;;;;;5.47;4.40;;;;;;;;;;2072215;28;19976;-91
2023/01/25 02:00:43;;;;;;;5.68;4.07;;;;;;;;;;2072446;28;20389;-91
2023/01/25 02:01:44;;;;;;;;;;;;;;;;;;2073172;28;20033;-91
2023/01/25 02:02:47;;;;;;;7.20;3.93;;;;;;;;;;2072152;28;19924;-92
2023/01/25 02:03:49;;;;;;;5.53;4.10;;;;;;;;;;2064388;28;20516;-90
2023/01/25 02:04:52;;;;;;;6.82;4.32;;;;;;;;;;2064364;28;20026;-91
2023/01/25 02:06:03;;;;;;;7.65;4.45;;;;;;;;;;2064176;28;20050;-90
2023/01/25 02:07:18;;;;;;;4.50;3.88;;;;;;;;;;2065507;28;20014;-91
2023/01/25 02:08:19;;;;;;;6.32;3.80;;;;;;;;;;2066150;28;20030;-93
2023/01/25 02:09:21;;;;;;;;;;;;;;;;;;2064523;28;20443;-92
2023/01/25 02:10:24;;;;;;;5.85;3.35;;;;;;;;;;2072050;28;19909;-93
2023/01/25 02:11:26;;;;;;;6.35;3.65;;;;;;;;;;2072253;28;20025;-90
2023/01/25 02:12:27;;;;;;;6.13;4.57;;;;;;;;;;2071872;28;20030;-92
2023/01/25 02:13:28;;;;;;;5.07;4.38;;;;;;;;;;2072253;28;20077;-93
2023/01/25 02:14:28;;;;;;;;;;;;;;;;;;2064910;28;20141;-92
2023/01/25 02:15:42;;;;;;;4.20;3.30;;;;;;;;;;2064321;28;19917;-91
2023/01/25 02:16:45;;;;;;;4.45;3.60;;;;;;;;;;2065757;28;20061;-93
2023/01/25 02:17:46;;;;;;;5.47;4.43;;;;;;;;;;2064470;28;20579;-93
2023/01/25 02:18:47;;;;;;;5.40;4.35;;;;;;;;;;2072489;28;20090;-92
2023/01/25 02:20:22;;;;;;;;;;;;;;;;;;2064741;28;20026;-92
2023/01/25 02:21:24;;;;;;;4.07;3.45;;;;;;;;;;2040721;29;19975;-91
2023/01/25 02:22:34;;;;;;;5.20;4.00;;;;;;;;;;2038233;29;20044;-92
2023/01/25 02:23:48;;;;;;;4.78;3.70;;;;;;;;;;2053448;28;20422;-91
2023/01/25 02:25:12;;;;;;;5.68;3.85;;;;;;;;;;2072393;28;20096;-91
2023/01/25 02:26:14;;;;;;;5.47;3.65;;;;;;;;;;2067082;28;20464;-91
2023/01/25 02:27:15;;;;;;;5.05;4.25;;;;;;;;;;2072655;28;20044;-93
2023/01/25 02:28:21;;;;;;;5.20;4.25;;;;;;;;;;2072219;28;20038;-92
2023/01/25 02:29:27;;;;;;;5.82;3.95;;;;;;;;;;2072645;28;20108;-92
2023/01/25 02:30:30;;;;;;;4.97;4.47;;;;;;;;;;2064881;28;20033;-92
2023/01/25 02:31:30;;;;;;;4.82;3.90;;;;;;;;;;2064684;28;20029;-92
2023/01/25 02:32:31;;;;;;;;;;;;;;;;;;2072919;28;20060;-92
2023/01/25 02:33:34;;;;;;;6.85;4.45;;;;;;;;;;2064259;28;19910;-91
2023/01/25 02:34:35;;;;;;;5.05;4.55;;;;;;;;;;2071944;28;20073;-91
2023/01/25 02:35:44;;;;;;;;;;;;;;;;;;2072321;28;20112;-90
2023/01/25 02:36:45;;;;;;;8.20;3.72;;;;;;;;;;2072293;28;19913;-92
2023/01/25 02:37:47;;;;;;;;;;;;;;;;;;2072274;28;20416;-91
2023/01/25 02:39:00;;;;;;;4.68;3.90;;;;;;;;;;2071936;28;20406;-91
2023/01/25 02:40:01;;;;;;;5.82;4.50;;;;;;;;;;2072022;28;20534;-93
2023/01/25 02:41:05;;;;;;;;;;;;;;;;;;2064249;28;20034;-92
2023/01/25 02:42:05;;;;;;;4.55;4.10;;;;;;;;;;2072455;28;19909;-91
2023/01/25 02:43:06;;;;;;;;;;;;;;;;;;2065528;28;20037;-91
2023/01/25 02:44:15;;;;;;;5.65;4.22;;;;;;;;;;2080572;28;19913;-91
2023/01/25 02:45:23;;;;;;;5.72;3.83;;;;;;;;;;2077667;28;20043;-92
2023/01/25 02:46:27;;;;;;;5.45;4.18;;;;;;;;;;2082983;28;20033;-90
2023/01/25 02:47:28;;;;;;;6.10;4.75;;;;;;;;;;2082397;28;20109;-91
2023/01/25 02:48:28;;;;;;;;;;;;;;;;;;2077392;28;20026;-91
2023/01/25 02:49:28;;;;;;;8.13;4.23;;;;;;;;;;2077808;28;19909;-91
2023/01/25 02:50:29;;;;;;;;;;;;;;;;;;2074431;28;20455;-90
2023/01/25 02:51:34;;;;;;;5.70;4.27;;;;;;;;;;1715724;28;10113691;-92
2023/01/25 02:52:34;;;;;;;6.60;4.90;;;;;;;;;;2065357;28;20042;-91
2023/01/25 02:53:35;;;;;;;;;;;;;;;;;;2064653;28;20174;-90
2023/01/25 02:54:35;;;;;;;5.60;4.30;;;;;;;;;;2063933;28;19910;-91
2023/01/25 02:55:36;;;;;;;;;;;;;;;;;;2064324;28;20184;-90
2023/01/25 02:56:36;;;;;;;8.03;4.27;;;;;;;;;;2065598;28;20023;-91
2023/01/25 02:57:39;;;;;;;;;;;;;;;;;;2076460;28;20033;-90
2023/01/25 02:58:40;;;;;;;6.45;4.53;;;;;;;;;;2077897;28;19910;-91
2023/01/25 02:59:40;;;;;;;;;;;;;;;;;;2079724;28;20048;-93
2023/01/25 03:00:41;;;;;;;3.93;3.57;;;;;;;;;;2076873;28;19936;-92
2023/01/25 03:01:42;;;;;;;8.48;4.57;;;;;;;;;;2057656;28;20045;-92
2023/01/25 03:02:44;;;;;;;6.82;4.97;;;;;;;;;;2057634;28;20118;-92
2023/01/25 03:03:45;;;;;;;5.72;4.68;;;;;;;;;;2065082;28;20476;-91
2023/01/25 03:04:45;;;;;;;;;;;;;;;;;;2074082;28;20041;-92
2023/01/25 03:05:48;;;;;;;5.33;4.10;;;;;;;;;;2072872;28;19913;-92
2023/01/25 03:06:58;;;;;;;7.63;4.80;;;;;;;;;;2074719;28;20082;-93
2023/01/25 03:07:59;;;;;;;9.45;5.50;;;;;;;;;;2086016;28;20014;-92
2023/01/25 03:08:59;;;;;;;;;;;;;;;;;;2081651;28;20036;-92
2023/01/25 03:09:59;;;;;;;4.90;4.40;;;;;;;;;;2080119;28;19909;-91
2023/01/25 03:11:00;;;;;;;;;;;;;;;;;;2075301;28;20124;-91
2023/01/25 03:12:01;;;;;;;5.45;4.35;;;;;;;;;;2074075;28;19959;-93
2023/01/25 03:13:04;;;;;;;;;;;;;;;;;;2076542;28;20076;-91
2023/01/25 03:14:22;;;;;;;6.15;4.82;;;;;;;;;;2075134;28;19922;-90
2023/01/25 03:15:22;;;;;;;9.40;5.40;;;;;;;;;;2082336;28;20092;-92
2023/01/25 03:16:23;;;;;;;;;;;;;;;;;;2077547;28;20061;-93
2023/01/25 03:17:25;;;;;;;10.93;5.43;;;;;;;;;;2065239;28;20000;-94
2023/01/25 03:18:26;;;;;;;9.95;6.32;;;;;;;;;;2065173;28;20082;-92
2023/01/25 03:19:27;;;;;;;;;;;;;;;;;;2064889;28;20038;-91
2023/01/25 03:20:27;;;;;;;8.60;6.00;;;;;;;;;;2064359;28;19921;-91
2023/01/25 03:21:27;;;;;;;;;;;;;;;;;;2064374;28;20129;-92
2023/01/25 03:22:30;;;;;;;12.60;5.30;;;;;;;;;;2072505;28;20334;-92
2023/01/25 03:23:31;;;;;;;7.95;5.00;;;;;;;;;;2072905;28;20033;-91
2023/01/25 03:24:31;;;;;;;;;;;;;;;;;;2073102;28;20100;-90
2023/01/25 03:25:32;;;;;;;7.40;5.20;;;;;;;;;;2072032;28;19909;-91
2023/01/25 03:27:09;;;;;;;9.15;6.05;;;;;;;;;;2064154;28;20429;-91
2023/01/25 03:27:53;;;;;;;9.27;6.23;;;;;;;;;;2071718;28;20416;-92
2023/01/25 03:28:54;;;;;;;;;;;;;;;;;;2072470;28;20269;-91
2023/01/25 03:29:54;;;;;;;6.13;4.23;;;;;;;;;;2071875;28;20299;-91
2023/01/25 03:30:54;;;;;;;7.70;5.22;;;;;;;;;;2071515;28;20540;-92
2023/01/25 03:31:55;;;;;;;;;;;;;;;;;;2072191;28;20010;-92
2023/01/25 03:32:55;;;;;;;7.47;5.60;;;;;;;;;;2072252;28;20004;-91
2023/01/25 03:33:56;;;;;;;;;;;;;;;;;;2072116;28;20053;-92
2023/01/25 03:34:57;;;;;;;9.02;5.85;;;;;;;;;;2071568;28;19920;-91
2023/01/25 03:35:59;;;;;;;9.57;5.72;;;;;;;;;;2079738;28;20041;-92
2023/01/25 03:36:59;;;;;;;7.43;5.78;;;;;;;;;;2072323;28;20465;-92
2023/01/25 03:37:59;;;;;;;;;;;;;;;;;;2072585;28;20022;-93
2023/01/25 03:39:00;;;;;;;6.30;5.27;;;;;;;;;;2072162;28;19945;-92
2023/01/25 03:40:01;;;;;;;9.68;6.18;;;;;;;;;;2064571;28;20023;-93
2023/01/25 03:41:01;;;;;;;;;;;;;;;;;;2064158;28;20018;-90
2023/01/25 03:42:02;;;;;;;11.30;6.10;;;;;;;;;;2071708;28;20340;-91
2023/01/25 03:43:03;;;;;;;9.70;6.10;;;;;;;;;;2071514;28;20025;-91
2023/01/25 03:44:03;;;;;;;;;;;;;;;;;;2072044;28;20049;-91
2023/01/25 03:45:04;;;;;;;11.47;6.60;;;;;;;;;;2072281;28;19916;-92
2023/01/25 03:46:08;;;;;;;15.98;7.47;;;;;;;;;;2072407;28;20056;-91
2023/01/25 03:47:10;;;;;;;13.63;6.90;;;;;;;;;;2072772;28;20037;-94
2023/01/25 03:48:11;;;;;;;10.93;6.90;;;;;;;;;;2072455;28;20030;-92
2023/01/25 03:49:12;;;;;;;;;;;;;;;;;;2065122;28;20050;-93
2023/01/25 03:50:14;;;;;;;8.23;5.37;;;;;;;;;;2072683;28;19913;-93
2023/01/25 03:51:15;;;;;;;9.15;5.72;;;;;;;;;;2072209;28;20515;-92
2023/01/25 03:52:15;;;;;;;;;;;;;;;;;;2072746;28;20104;-92
2023/01/25 03:53:33;;;;;;;7.70;5.90;;;;;;;;;;2072179;28;20291;-92
2023/01/25 03:54:33;;;;;;;9.27;6.07;;;;;;;;;;2072434;28;20033;-92
2023/01/25 03:55:38;;;;;;;;;;;;;;;;;;2064934;28;20022;-93
2023/01/25 03:56:39;;;;;;;10.77;7.03;;;;;;;;;;2064913;28;19928;-92
2023/01/25 03:57:39;;;;;;;;;;;;;;;;;;2072443;28;20034;-93
2023/01/25 03:58:40;;;;;;;10.33;6.97;;;;;;;;;;2071691;28;20040;-91
2023/01/25 03:59:43;;;;;;;13.57;6.95;;;;;;;;;;2063454;28;20053;-92
2023/01/25 04:00:44;;;;;;;10.10;6.32;;;;;;;;;;2064079;28;20027;-91
2023/01/25 04:01:44;;;;;;;;;;;;;;;;;;2063910;28;20475;-92
2023/01/25 04:02:45;;;;;;;11.57;6.53;;;;;;;;;;2071717;28;19996;-92
2023/01/25 04:03:46;;;;;;;10.07;6.40;;;;;;;;;;2071463;28;20125;-91
2023/01/25 04:04:48;;;;;;;;;;;;;;;;;;2063558;28;20026;-92
2023/01/25 04:05:52;;;;;;;11.68;6.72;;;;;;;;;;2063938;28;19921;-92
2023/01/25 04:06:53;;;;;;;24.73;7.68;;;;;;;;;;2072711;28;20407;-92
2023/01/25 04:07:53;;;;;;;;;;;;;;;;;;2077140;28;20026;-90
2023/01/25 04:08:54;;;;;;;9.97;5.77;;;;;;;;;;2071766;28;19973;-90
2023/01/25 04:09:54;;;;;;;;;;;;;;;;;;2071770;28;20510;-91
2023/01/25 04:10:59;;;;;;;11.03;5.13;;;;;;;;;;2071409;28;19920;-91
2023/01/25 04:11:59;;;;;;;10.57;6.28;;;;;;;;;;2071052;28;20486;-91
2023/01/25 04:12:59;;;;;;;;;;;;;;;;;;2071198;28;20014;-90
2023/01/25 04:14:00;;;;;;;11.10;6.47;;;;;;;;;;2070928;28;20004;-92
2023/01/25 04:15:00;;;;;;;;;;;;;;;;;;2071825;28;20390;-92
2023/01/25 04:16:10;;;;;;;12.60;6.57;;;;;;;;;;2072634;28;19952;-92
2023/01/25 04:17:13;;;;;;;10.68;7.82;;;;;;;;;;2072099;28;20022;-92
2023/01/25 04:18:14;;;;;;;13.90;7.45;;;;;;;;;;2071964;28;20018;-92
2023/01/25 04:19:15;;;;;;;11.45;7.40;;;;;;;;;;2071039;28;20046;-90
2023/01/25 04:20:15;;;;;;;;;;;;;;;;;;2072039;28;20445;-91
2023/01/25 04:21:15;;;;;;;8.73;6.80;;;;;;;;;;2071402;28;20265;-92
2023/01/25 04:22:20;;;;;;;12.63;7.28;;;;;;;;;;2071303;28;20017;-91
2023/01/25 04:23:22;;;;;;;12.82;7.20;;;;;;;;;;2063592;28;20486;-91
2023/01/25 04:24:23;;;;;;;11.07;7.60;;;;;;;;;;2071516;28;20026;-92
2023/01/25 04:25:23;;;;;;;;;;;;;;;;;;2072008;28;20601;-91
2023/01/25 04:26:24;;;;;;;12.53;7.43;;;;;;;;;;2071395;28;19919;-91
2023/01/25 04:27:24;;;;;;;;;;;;;;;;;;2071443;28;20048;-93
2023/01/25 04:28:26;;;;;;;10.80;6.07;;;;;;;;;;2071691;28;20011;-91
2023/01/25 04:29:26;;;;;;;10.80;7.45;;;;;;;;;;2063568;28;20030;-91
2023/01/25 04:30:26;;;;;;;;;;;;;;;;;;2064287;28;20030;-92
2023/01/25 04:31:29;;;;;;;12.00;7.93;;;;;;;;;;2063779;28;19996;-91
2023/01/25 04:32:30;;;;;;;14.48;8.15;;;;;;;;;;2063745;28;20033;-91
2023/01/25 04:33:31;;;;;;;;;;;;;;;;;;2072156;28;20053;-91
2023/01/25 04:34:31;;;;;;;12.57;7.43;;;;;;;;;;2071428;28;19913;-91
2023/01/25 04:35:31;;;;;;;;;;;;;;;;;;2071869;28;20109;-91
2023/01/25 04:36:32;;;;;;;13.10;9.33;;;;;;;;;;2071213;28;19951;-91
2023/01/25 04:37:32;;;;;;;;;;;;;;;;;;2063829;28;20029;-92
2023/01/25 04:38:33;;;;;;;18.75;6.95;;;;;;;;;;2063298;28;20394;-91
2023/01/25 04:39:33;;;;;;;;;;;;;;;;;;2063627;28;20553;-91
2023/01/25 04:40:34;;;;;;;9.43;6.97;;;;;;;;;;2063070;28;20387;-91
2023/01/25 04:41:34;;;;;;;;;;;;;;;;;;2063760;28;20189;-92
2023/01/25 04:42:34;;;;;;;9.60;6.00;;;;;;;;;;2071414;28;19909;-91
2023/01/25 04:43:35;;;;;;;;;;;;;;;;;;2064017;28;20113;-91
2023/01/25 04:44:35;;;;;;;10.17;6.67;;;;;;;;;;2063484;28;19920;-91
2023/01/25 04:45:36;;;;;;;;;;;;;;;;;;2071868;28;20243;-91
2023/01/25 04:46:36;;;;;;;11.45;7.18;;;;;;;;;;2065837;28;19914;-92
2023/01/25 04:47:37;;;;;;;14.38;7.60;;;;;;;;;;2077279;28;20036;-92
2023/01/25 04:48:37;;;;;;;;;;;;;;;;;;2080316;28;20017;-92
2023/01/25 04:49:38;;;;;;;14.80;9.13;;;;;;;;;;2080094;28;19915;-92
2023/01/25 04:50:40;;;;;;;16.80;9.52;;;;;;;;;;2073932;28;20034;-92
2023/01/25 04:51:40;;;;;;;20.83;12.70;;;;;;;;;;2071486;28;20108;-92
2023/01/25 04:52:41;;;;;;;;;;;;;;;;;;2063417;28;20489;-92
2023/01/25 04:53:41;;;;;;;12.60;8.57;;;;;;;;;;2063432;28;19967;-92
2023/01/25 04:54:41;;;;;;;;;;;;;;;;;;2063503;28;20413;-92
2023/01/25 04:55:46;;;;;;;10.57;7.70;;;;;;;;;;2064019;28;19956;-92
2023/01/25 04:56:46;;;;;;;16.08;8.05;;;;;;;;;;2070481;28;20037;-92
2023/01/25 04:57:52;;;;;;;;;;;;;;;;;;2078473;28;20025;-91
2023/01/25 04:58:52;;;;;;;14.15;8.73;;;;;;;;;;2071805;28;19922;-91
2023/01/25 04:59:52;;;;;;;;;;;;;;;;;;2064317;28;20585;-91
2023/01/25 05:00:53;;;;;;;15.63;7.60;;;;;;;;;;2076835;28;20021;-92
2023/01/25 05:01:53;;;;;;;13.10;7.93;;;;;;;;;;2078058;28;20057;-92
2023/01/25 05:02:54;;;;;;;;;;;;;;;;;;2073246;28;20022;-93
2023/01/25 05:03:54;;;;;;;36.83;17.70;;;;;;;;;;2072212;28;19913;-93
2023/01/25 05:04:55;;;;;;;;;;;;;;;;;;2072928;28;20094;-90
2023/01/25 05:05:55;;;;;;;16.33;8.97;;;;;;;;;;2075060;28;20048;-90
2023/01/25 05:06:55;;;;;;;;;;;;;;;;;;2079430;28;20036;-91
2023/01/25 05:07:56;;;;;;;14.93;8.40;;;;;;;;;;2075121;28;20356;-91
2023/01/25 05:09:02;;;;;;;;;;;;;;;;;;2072610;28;20578;-91
2023/01/25 05:10:03;;;;;;;9.35;7.25;;;;;;;;;;2071570;28;19979;-91
2023/01/25 05:11:04;;;;;;;13.30;7.30;;;;;;;;;;2071965;28;20021;-91
2023/01/25 05:12:10;;;;;;;;;;;;;;;;;;2072622;28;20024;-91
2023/01/25 05:13:10;;;;;;;13.40;7.25;;;;;;;;;;2071757;28;19913;-93
2023/01/25 05:14:11;;;;;;;;;;;;;;;;;;2071918;28;20037;-90
2023/01/25 05:15:11;;;;;;;14.07;7.47;;;;;;;;;;2071317;28;19913;-92
2023/01/25 05:16:11;;;;;;;;;;;;;;;;;;2072376;28;20030;-93
2023/01/25 05:17:12;;;;;;;16.90;7.87;;;;;;;;;;2063846;28;19972;-93
2023/01/25 05:18:12;;;;;;;;;;;;;;;;;;2064243;28;20018;-92
2023/01/25 05:19:16;;;;;;;10.70;6.53;;;;;;;;;;2063805;28;19925;-93
2023/01/25 05:20:16;;;;;;;13.85;8.32;;;;;;;;;;2063309;28;20485;-92
2023/01/25 05:22:36;;;;;;;11.23;8.32;;;;;;;;;;2072208;28;20427;-93
2023/01/25 05:23:36;;;;;;;;;;;;;;;;;;2072429;28;20026;-92
2023/01/25 05:24:40;;;;;;;10.20;8.23;;;;;;;;;;2071804;28;20322;-92
2023/01/25 05:27:03;;;;;;;13.93;8.48;;;;;;;;;;2079534;28;20022;-92
2023/01/25 05:28:05;;;;;;;11.27;8.40;;;;;;;;;;2082881;28;20156;-93
2023/01/25 05:29:08;;;;;;;18.83;10.95;;;;;;;;;;2074974;28;20006;-92
2023/01/25 05:30:09;;;;;;;14.02;8.93;;;;;;;;;;2080251;28;20022;-93
2023/01/25 05:31:09;;;;;;;;;;;;;;;;;;2070693;28;20452;-90
2023/01/25 05:32:18;;;;;;;13.87;8.03;;;;;;;;;;2066503;28;19910;-90
2023/01/25 05:33:22;;;;;;;10.57;8.15;;;;;;;;;;2065813;28;20050;-91
2023/01/25 05:34:26;;;;;;;11.32;8.68;;;;;;;;;;2073230;28;20033;-90
2023/01/25 05:35:26;;;;;;;14.23;9.65;;;;;;;;;;2072695;28;20037;-92
2023/01/25 05:36:27;;;;;;;;;;;;;;;;;;2073181;28;20096;-91
2023/01/25 05:37:27;;;;;;;8.87;7.37;;;;;;;;;;2072688;28;19960;-90
2023/01/25 05:38:29;;;;;;;;;;;;;;;;;;2073260;28;20059;-91
2023/01/25 05:39:29;;;;;;;12.50;7.88;;;;;;;;;;2072699;28;19909;-89
2023/01/25 05:40:32;;;;;;;;;;;;;;;;;;2064990;28;20416;-90
2023/01/25 05:41:33;;;;;;;11.32;7.00;;;;;;;;;;2072937;28;19916;-92
2023/01/25 05:42:33;;;;;;;;;;;;;;;;;;2081345;28;20173;-90
2023/01/25 05:43:34;;;;;;;12.30;7.13;;;;;;;;;;2072962;28;19971;-90
2023/01/25 05:44:34;;;;;;;13.75;8.82;;;;;;;;;;2064406;28;20037;-90
2023/01/25 05:45:35;;;;;;;15.13;8.63;;;;;;;;;;2072279;28;20500;-90
2023/01/25 05:46:35;;;;;;;;;;;;;;;;;;2077794;28;20579;-92
2023/01/25 05:47:35;;;;;;;14.20;9.00;;;;;;;;;;2080028;28;20033;-91
2023/01/25 05:48:38;;;;;;;;;;;;;;;;;;2082047;28;20030;-92
2023/01/25 05:49:39;;;;;;;13.98;8.65;;;;;;;;;;2073904;28;19921;-91
2023/01/25 05:50:39;;;;;;;;;;;;;;;;;;2080903;28;20105;-92
2023/01/25 05:51:40;;;;;;;14.77;9.02;;;;;;;;;;2078055;28;20338;-91
2023/01/25 05:52:40;;;;;;;15.30;11.00;;;;;;;;;;2076876;28;20026;-91
2023/01/25 05:53:41;;;;;;;17.20;11.35;;;;;;;;;;2068177;28;20030;-90
2023/01/25 05:54:41;;;;;;;;;;;;;;;;;;2068438;28;20030;-91
2023/01/25 05:55:41;;;;;;;14.57;9.43;;;;;;;;;;2073504;28;19909;-91
2023/01/25 05:56:42;;;;;;;;;;;;;;;;;;2064255;28;20038;-92
2023/01/25 05:57:43;;;;;;;12.30;8.02;;;;;;;;;;2064026;28;19910;-92
2023/01/25 05:58:43;;;;;;;;;;;;;;;;;;2073171;28;20025;-91
2023/01/25 05:59:44;;;;;;;12.40;8.07;;;;;;;;;;2080901;28;20383;-91
2023/01/25 06:00:44;;;;;;;;;;;;;;;;;;2080990;28;20029;-91
2023/01/25 06:01:44;;;;;;;13.98;8.70;;;;;;;;;;2071966;28;20017;-91
2023/01/25 06:02:45;;;;;;;;;;;;;;;;;;2072167;28;20100;-90
2023/01/25 06:03:46;;;;;;;11.27;9.20;;;;;;;;;;2071737;28;19968;-90
2023/01/25 06:04:46;;;;;;;11.77;8.98;;;;;;;;;;2071907;28;20068;-91
2023/01/25 06:05:47;;;;;;;;;;;;;;;;;;2072371;28;20077;-93
2023/01/25 06:06:47;;;;;;;12.73;7.73;;;;;;;;;;2072058;28;20055;-90
2023/01/25 06:07:48;;;;;;;10.25;7.85;;;;;;;;;;2072389;28;20046;-90
2023/01/25 06:08:48;;;;;;;;;;;;;;;;;;2073187;28;20436;-90
2023/01/25 06:09:49;;;;;;;12.63;8.80;;;;;;;;;;2072827;28;19909;-90
2023/01/25 06:10:50;;;;;;;15.70;8.93;;;;;;;;;;2072085;28;20037;-91
2023/01/25 06:11:50;;;;;;;13.40;9.82;;;;;;;;;;2064204;28;20480;-90
2023/01/25 06:12:56;;;;;;;;;;;;;;;;;;2072479;28;20025;-88
2023/01/25 06:13:56;;;;;;;13.02;9.32;;;;;;;;;;2064574;28;20399;-91
2023/01/25 06:14:56;;;;;;;;;;;;;;;;;;2064297;28;20042;-90
2023/01/25 06:15:59;;;;;;;13.33;8.10;;;;;;;;;;2071954;28;19917;-90
2023/01/25 06:17:00;;;;;;;12.50;8.60;;;;;;;;;;2071419;28;20108;-90
2023/01/25 06:18:00;;;;;;;;;;;;;;;;;;2064187;28;20173;-90
2023/01/25 06:19:01;;;;;;;11.87;8.10;;;;;;;;;;2072034;28;19949;-90
2023/01/25 06:20:01;;;;;;;;;;;;;;;;;;2072289;28;20021;-90
2023/01/25 06:21:03;;;;;;;12.07;8.07;;;;;;;;;;2071840;28;20353;-90
2023/01/25 06:22:03;;;;;;;15.60;8.77;;;;;;;;;;2072335;28;20036;-90
2023/01/25 06:23:08;;;;;;;;;;;;;;;;;;2072455;28;20049;-89
2023/01/25 06:24:09;;;;;;;19.05;12.25;;;;;;;;;;2064833;28;19921;-90
2023/01/25 06:25:09;;;;;;;;;;;;;;;;;;2064053;28;20409;-90
2023/01/25 06:26:53;;;;;;;15.20;10.23;;;;;;;;;;2071678;28;19916;-90
2023/01/25 06:27:54;;;;;;;13.98;8.23;;;;;;;;;;1727649;28;10001370;-89
2023/01/25 06:28:54;;;;;;;;;;;;;;;;;;2071758;28;20430;-90
2023/01/25 06:29:55;;;;;;;13.87;7.40;;;;;;;;;;2073014;28;19932;-90
2023/01/25 06:30:55;;;;;;;;;;;;;;;;;;2072210;28;20486;-90